Time;durP1;ratioP1;P1;durP2;ratioP2;P2;SDS_P1;SDS_P2;PMS_P1;PMS_P2;Temp;Humidity;BMP_temperature;BMP_pressure;BME280_temperature;BME280_humidity;BME280_pressure;Samples;Min_cycle;Max_cycle;Signal;HPM_P1;HPM_P2
2022/06/13 00:00:32;;;;;;;1.52;0.80;;;14.70;89.30;;;;;;4923706;29;20917;-65
2022/06/13 00:02:59;;;;;;;1.90;0.70;;;14.70;89.50;;;;;;4925901;29;20098;-65
2022/06/13 00:05:32;;;;;;;0.85;0.57;;;14.60;89.80;;;;;;4909941;29;20143;-65
2022/06/13 00:07:58;;;;;;;1.40;0.68;;;14.60;90.30;;;;;;4908270;29;20126;-65
2022/06/13 00:10:25;;;;;;;1.08;0.57;;;14.60;90.30;;;;;;4925484;29;20068;-65
2022/06/13 00:12:52;;;;;;;1.75;1.45;;;14.60;90.50;;;;;;4924158;29;20087;-65
2022/06/13 00:15:19;;;;;;;2.47;0.73;;;14.50;90.60;;;;;;4924986;29;20583;-65
2022/06/13 00:17:45;;;;;;;1.20;0.60;;;14.50;90.70;;;;;;4925894;29;20203;-64
2022/06/13 00:20:12;;;;;;;1.92;0.70;;;14.40;91.00;;;;;;4925572;29;20090;-65
2022/06/13 00:22:39;;;;;;;1.08;0.50;;;14.40;91.10;;;;;;4892250;29;20075;-65
2022/06/13 00:25:06;;;;;;;0.77;0.50;;;14.40;91.40;;;;;;4925088;29;20094;-65
2022/06/13 00:27:33;;;;;;;1.67;0.50;;;14.30;91.60;;;;;;4906921;29;20051;-65
2022/06/13 00:30:00;;;;;;;1.83;0.60;;;14.30;91.70;;;;;;4925189;29;20162;-66
2022/06/13 00:32:27;;;;;;;1.55;0.57;;;14.30;91.90;;;;;;4925784;29;20047;-66
2022/06/13 00:34:55;;;;;;;1.60;0.80;;;14.30;92.10;;;;;;4925382;29;20139;-65
2022/06/13 00:37:22;;;;;;;1.48;0.70;;;14.30;92.30;;;;;;4925514;29;20078;-65
2022/06/13 00:39:49;;;;;;;1.50;0.70;;;14.20;92.40;;;;;;4925625;29;20087;-65
2022/06/13 00:42:18;;;;;;;1.13;0.40;;;14.20;92.50;;;;;;4924160;29;20082;-65
2022/06/13 00:45:27;;;;;;;0.45;0.35;;;14.20;92.70;;;;;;4924742;29;20055;-65
2022/06/13 00:47:54;;;;;;;0.73;0.35;;;14.10;92.80;;;;;;4904106;29;20142;-65
2022/06/13 00:50:26;;;;;;;0.82;0.40;;;14.10;93.00;;;;;;4918223;29;20491;-66
2022/06/13 00:52:57;;;;;;;0.98;0.40;;;14.00;93.20;;;;;;4925064;29;20142;-65
2022/06/13 00:55:37;;;;;;;0.82;0.40;;;14.00;93.40;;;;;;4906966;29;20050;-66
2022/06/13 00:58:04;;;;;;;0.75;0.47;;;14.00;93.50;;;;;;4908032;29;20056;-65
2022/06/13 01:00:31;;;;;;;0.98;0.50;;;14.00;93.60;;;;;;4906921;29;20130;-65
2022/06/13 01:02:58;;;;;;;0.73;0.50;;;14.00;93.70;;;;;;4891567;29;20090;-65
2022/06/13 01:05:26;;;;;;;0.77;0.43;;;13.90;93.80;;;;;;4924036;29;20052;-65
2022/06/13 01:07:54;;;;;;;1.70;0.70;;;13.90;93.90;;;;;;4907680;29;20043;-65
2022/06/13 01:13:07;;;;;;;1.17;0.50;;;13.80;94.30;;;;;;4924130;29;20463;-65
2022/06/13 01:15:41;;;;;;;0.63;0.40;;;13.80;94.60;;;;;;4891239;29;20432;-65
2022/06/13 01:18:20;;;;;;;0.70;0.32;;;13.80;94.80;;;;;;4908429;29;20052;-65
2022/06/13 01:21:16;;;;;;;0.55;0.40;;;13.70;95.00;;;;;;4924183;29;20131;-64
2022/06/13 01:24:03;;;;;;;1.35;0.60;;;13.70;95.30;;;;;;4911526;29;20131;-65
2022/06/13 01:27:10;;;;;;;0.88;0.40;;;13.60;95.60;;;;;;4892182;29;20044;-65
2022/06/13 01:29:45;;;;;;;2.35;0.50;;;13.60;95.90;;;;;;4906309;29;20131;-65
2022/06/13 01:32:30;;;;;;;0.60;0.30;;;13.50;96.00;;;;;;4908012;29;20558;-65
2022/06/13 01:35:45;;;;;;;1.20;0.40;;;13.50;96.20;;;;;;4908842;29;20563;-65
2022/06/13 01:38:16;;;;;;;0.47;0.32;;;13.50;96.50;;;;;;4867891;29;20134;-65
2022/06/13 01:41:08;;;;;;;0.80;0.35;;;13.40;96.70;;;;;;4892935;29;20126;-65
2022/06/13 01:43:47;;;;;;;0.77;0.38;;;13.40;97.10;;;;;;4925188;29;20083;-65
2022/06/13 01:46:29;;;;;;;0.43;0.20;;;13.40;97.40;;;;;;4908686;29;20130;-65
2022/06/13 01:49:01;;;;;;;0.28;0.28;;;13.30;97.60;;;;;;4909762;29;20118;-66
2022/06/13 01:51:48;;;;;;;0.35;0.20;;;13.30;98.00;;;;;;4893776;29;20146;-65
2022/06/13 01:54:24;;;;;;;1.52;0.30;;;13.20;98.40;;;;;;4922849;29;20067;-65
2022/06/13 01:56:53;;;;;;;0.55;0.40;;;13.20;98.70;;;;;;4924731;29;20142;-66
2022/06/13 01:59:33;;;;;;;1.67;0.50;;;13.20;99.20;;;;;;4898311;29;20151;-65
2022/06/13 02:02:23;;;;;;;0.68;0.32;;;13.10;99.70;;;;;;4908975;29;20548;-65
2022/06/13 02:04:59;;;;;;;1.10;0.30;;;13.10;99.90;;;;;;4926402;29;20158;-65
2022/06/13 02:07:29;;;;;;;0.75;0.30;;;13.10;99.90;;;;;;4909437;29;20067;-65
2022/06/13 02:10:03;;;;;;;0.50;0.50;;;13.10;99.90;;;;;;4909380;29;20051;-66
2022/06/13 02:12:31;;;;;;;1.20;0.60;;;13.00;99.90;;;;;;4900249;29;20162;-65
2022/06/13 02:15:17;;;;;;;0.77;0.50;;;13.00;99.90;;;;;;4892541;29;20131;-65
2022/06/13 02:17:46;;;;;;;2.05;0.50;;;13.00;99.90;;;;;;4898180;29;20134;-65
2022/06/13 02:20:16;;;;;;;1.15;0.40;;;12.90;99.90;;;;;;4913060;29;20126;-65
2022/06/13 02:22:48;;;;;;;1.15;0.35;;;12.90;99.90;;;;;;4898475;29;20079;-65
2022/06/13 02:25:30;;;;;;;1.57;0.63;;;12.80;99.90;;;;;;4912066;29;20061;-65
2022/06/13 02:27:59;;;;;;;1.08;0.50;;;12.80;99.90;;;;;;4927483;29;20798;-65
2022/06/13 02:30:35;;;;;;;0.80;0.50;;;12.70;99.90;;;;;;4912203;29;20464;-65
2022/06/13 02:33:16;;;;;;;1.92;1.20;;;12.70;99.90;;;;;;4911653;29;20079;-65
2022/06/13 02:35:52;;;;;;;0.90;0.50;;;12.70;99.90;;;;;;4898001;29;20087;-65
2022/06/13 02:38:41;;;;;;;1.10;0.65;;;12.60;99.90;;;;;;4912331;29;20542;-65
2022/06/13 02:41:09;;;;;;;1.30;0.52;;;12.60;99.90;;;;;;4911942;29;20170;-65
2022/06/13 02:43:52;;;;;;;0.98;0.52;;;12.60;99.90;;;;;;4895835;29;20059;-65
2022/06/13 02:46:24;;;;;;;1.95;0.50;;;12.60;99.90;;;;;;4911835;29;20051;-65
2022/06/13 02:48:53;;;;;;;0.80;0.45;;;12.50;99.90;;;;;;4910344;29;20063;-66
2022/06/13 02:51:38;;;;;;;1.30;0.55;;;12.50;99.90;;;;;;4911668;29;20143;-66
2022/06/13 02:54:05;;;;;;;1.00;0.63;;;12.50;99.90;;;;;;4911421;29;20118;-65
2022/06/13 02:57:31;;;;;;;2.08;0.70;;;12.50;99.90;;;;;;4928000;29;20051;-65
2022/06/13 03:00:11;;;;;;;1.60;0.70;;;12.40;99.90;;;;;;4906894;29;20523;-65
2022/06/13 03:03:05;;;;;;;0.85;0.50;;;12.40;99.90;;;;;;4897582;29;20098;-65
2022/06/13 03:05:37;;;;;;;0.50;0.40;;;12.40;99.90;;;;;;4929432;29;20083;-65
2022/06/13 03:08:19;;;;;;;0.47;0.38;;;12.40;99.90;;;;;;4911687;29;20441;-65
2022/06/13 03:10:55;;;;;;;0.75;0.45;;;12.30;99.90;;;;;;4928913;29;20143;-66
2022/06/13 03:13:31;;;;;;;0.95;0.50;;;12.30;99.90;;;;;;4896149;29;20156;-65
2022/06/13 03:16:22;;;;;;;0.73;0.40;;;12.20;99.90;;;;;;4911336;29;20059;-65
2022/06/13 03:18:52;;;;;;;1.30;0.40;;;12.20;99.90;;;;;;4911565;29;20135;-65
2022/06/13 03:21:24;;;;;;;0.93;0.50;;;12.20;99.90;;;;;;4896977;29;20056;-65
2022/06/13 03:23:55;;;;;;;1.00;0.70;;;12.10;99.90;;;;;;4896752;29;20047;-65
2022/06/13 03:26:34;;;;;;;1.90;0.80;;;12.10;99.90;;;;;;4910809;29;20058;-65
2022/06/13 03:29:27;;;;;;;0.90;0.43;;;12.00;99.90;;;;;;4910395;29;20129;-65
2022/06/13 03:31:56;;;;;;;1.15;0.70;;;12.00;99.90;;;;;;4918757;29;20147;-65
2022/06/13 03:34:28;;;;;;;0.50;0.40;;;11.90;99.90;;;;;;4894349;29;20483;-65
2022/06/13 03:37:25;;;;;;;0.98;0.82;;;11.90;99.90;;;;;;4895933;29;20138;-64
2022/06/13 03:39:55;;;;;;;1.10;0.47;;;11.80;99.90;;;;;;4895432;29;20051;-65
2022/06/13 03:42:24;;;;;;;0.68;0.50;;;11.80;99.90;;;;;;4892540;29;20131;-65
2022/06/13 03:45:07;;;;;;;0.38;0.38;;;11.80;99.90;;;;;;4911292;29;20048;-65
2022/06/13 03:47:44;;;;;;;0.50;0.50;;;11.80;99.90;;;;;;4910542;29;20048;-66
2022/06/13 03:50:29;;;;;;;0.80;0.50;;;11.80;99.90;;;;;;4896005;29;20508;-65
2022/06/13 03:53:10;;;;;;;0.63;0.55;;;11.80;99.90;;;;;;4895806;29;20135;-65
2022/06/13 03:55:57;;;;;;;0.70;0.68;;;11.80;99.90;;;;;;4928129;29;20062;-65
2022/06/13 03:58:42;;;;;;;0.70;0.50;;;11.80;99.90;;;;;;4909534;29;20139;-65
2022/06/13 04:01:16;;;;;;;1.08;0.40;;;11.80;99.90;;;;;;4911345;29;20421;-65
2022/06/13 04:03:43;;;;;;;0.68;0.50;;;11.80;99.90;;;;;;4903960;29;20059;-65
2022/06/13 04:06:47;;;;;;;0.98;0.50;;;11.80;99.90;;;;;;4895117;29;20063;-66
2022/06/13 04:09:13;;;;;;;;;;;11.90;99.90;;;;;;4928683;29;20062;-66
2022/06/13 04:11:50;;;;;;;1.48;0.57;;;11.90;99.90;;;;;;4927534;29;19998;-66
2022/06/13 04:15:00;;;;;;;1.10;0.60;;;11.90;99.90;;;;;;4927092;29;20132;-66
2022/06/13 04:17:46;;;;;;;0.50;0.40;;;11.80;99.90;;;;;;4912867;29;20075;-66
2022/06/13 04:20:50;;;;;;;0.90;0.55;;;11.90;99.90;;;;;;4927929;29;20078;-66
2022/06/13 04:23:40;;;;;;;1.60;0.55;;;11.90;99.90;;;;;;4926540;29;20051;-64
2022/06/13 04:26:30;;;;;;;1.17;0.60;;;11.90;99.90;;;;;;4901477;29;20043;-65
2022/06/13 04:29:23;;;;;;;0.95;0.40;;;11.80;99.90;;;;;;4909858;29;20044;-65
2022/06/13 04:31:50;;;;;;;1.48;0.52;;;11.80;99.90;;;;;;4895343;29;20127;-65
2022/06/13 04:34:23;;;;;;;0.50;0.50;;;11.80;99.90;;;;;;4890097;29;20048;-64
2022/06/13 04:36:50;;;;;;;1.02;0.70;;;11.80;99.90;;;;;;4899037;29;20060;-65
2022/06/13 04:39:20;;;;;;;1.50;0.50;;;11.80;99.90;;;;;;4897561;29;20150;-65
2022/06/13 04:41:51;;;;;;;0.90;0.50;;;11.80;99.90;;;;;;4897301;29;20055;-65
2022/06/13 04:44:20;;;;;;;1.08;0.40;;;11.80;99.90;;;;;;4899548;29;20219;-65
2022/06/13 04:46:47;;;;;;;1.10;0.50;;;11.90;99.90;;;;;;4882311;29;20063;-66
2022/06/13 04:49:26;;;;;;;0.65;0.50;;;11.80;99.90;;;;;;4896419;29;20051;-66
2022/06/13 04:51:53;;;;;;;0.55;0.50;;;11.90;99.90;;;;;;4895771;29;20123;-65
2022/06/13 04:54:28;;;;;;;1.30;0.60;;;11.80;99.90;;;;;;4898070;29;20239;-64
2022/06/13 04:56:59;;;;;;;1.95;0.73;;;11.90;99.90;;;;;;4913456;29;20132;-65
2022/06/13 04:59:26;;;;;;;1.13;0.60;;;11.90;99.90;;;;;;4898199;29;20142;-64
2022/06/13 05:01:53;;;;;;;1.05;0.60;;;11.90;99.90;;;;;;4895568;29;20110;-65
2022/06/13 05:04:24;;;;;;;2.40;0.70;;;12.00;99.90;;;;;;4924114;29;20090;-65
2022/06/13 05:06:52;;;;;;;1.70;0.55;;;12.00;99.90;;;;;;4908352;29;20142;-65
2022/06/13 05:09:35;;;;;;;1.60;0.50;;;12.00;99.90;;;;;;4912025;29;20194;-65
2022/06/13 05:12:20;;;;;;;0.73;0.60;;;12.00;99.90;;;;;;4912815;29;20055;-65
2022/06/13 05:14:53;;;;;;;1.67;0.63;;;12.10;99.90;;;;;;4928912;29;20049;-65
2022/06/13 05:17:40;;;;;;;1.00;0.50;;;12.10;99.90;;;;;;4931978;29;20110;-65
2022/06/13 05:20:17;;;;;;;2.33;0.85;;;12.20;99.90;;;;;;4931791;29;20131;-65
2022/06/13 05:23:07;;;;;;;1.83;0.80;;;12.20;99.90;;;;;;4926195;29;20085;-65
2022/06/13 05:25:43;;;;;;;1.35;1.00;;;12.20;99.90;;;;;;4909438;29;20099;-65
2022/06/13 05:28:11;;;;;;;3.13;0.95;;;12.30;99.90;;;;;;4910704;29;20071;-65
2022/06/13 05:30:42;;;;;;;1.80;0.80;;;12.30;99.90;;;;;;4930077;29;20385;-66
2022/06/13 05:33:11;;;;;;;2.42;0.82;;;12.40;99.90;;;;;;4908974;29;20053;-65
2022/06/13 05:35:43;;;;;;;0.98;0.60;;;12.40;99.90;;;;;;4912799;29;20051;-65
2022/06/13 05:38:42;;;;;;;2.70;0.95;;;12.50;99.90;;;;;;4913324;29;20693;-65
2022/06/13 05:41:09;;;;;;;1.10;0.70;;;12.50;99.90;;;;;;4912806;29;20079;-65
2022/06/13 05:43:36;;;;;;;2.95;1.05;;;12.60;99.90;;;;;;4922811;29;20534;-66
2022/06/13 05:46:03;;;;;;;1.30;0.73;;;12.70;99.90;;;;;;4923062;29;20047;-65
2022/06/13 05:48:30;;;;;;;1.23;0.70;;;12.60;99.90;;;;;;4927920;29;20118;-66
2022/06/13 05:50:57;;;;;;;1.50;0.80;;;12.70;99.90;;;;;;4921199;28;20071;-66
2022/06/13 05:53:24;;;;;;;1.33;0.75;;;12.70;99.90;;;;;;4903873;29;20622;-66
2022/06/13 05:55:53;;;;;;;2.63;1.00;;;12.80;99.90;;;;;;4913568;29;20135;-66
2022/06/13 05:58:20;;;;;;;1.65;0.90;;;12.90;99.90;;;;;;4899662;29;20587;-66
2022/06/13 06:00:48;;;;;;;1.23;0.60;;;12.90;99.90;;;;;;4900691;29;20052;-66
2022/06/13 06:03:16;;;;;;;1.38;0.90;;;13.00;99.90;;;;;;4900844;29;20499;-65
2022/06/13 06:05:43;;;;;;;2.10;1.08;;;13.00;99.90;;;;;;4892833;29;20389;-66
2022/06/13 06:08:15;;;;;;;1.67;0.98;;;13.10;99.90;;;;;;4901437;29;20047;-66
2022/06/13 06:10:41;;;;;;;2.72;0.90;;;13.20;99.90;;;;;;4919044;29;20452;-66
2022/06/13 06:13:10;;;;;;;1.73;0.63;;;13.30;99.90;;;;;;4897176;29;20407;-66
2022/06/13 06:15:39;;;;;;;1.15;0.80;;;13.30;99.90;;;;;;4897074;29;20138;-66
2022/06/13 06:18:06;;;;;;;2.45;0.70;;;13.50;99.90;;;;;;4900897;29;20048;-67
2022/06/13 06:20:32;;;;;;;1.20;0.57;;;13.50;99.90;;;;;;4915124;29;20566;-64
2022/06/13 06:22:59;;;;;;;2.20;1.05;;;13.60;99.90;;;;;;4898941;29;20116;-64
2022/06/13 06:25:26;;;;;;;1.30;0.73;;;13.60;99.90;;;;;;4919283;29;20138;-64
2022/06/13 06:27:53;;;;;;;1.30;0.70;;;13.70;99.90;;;;;;4917919;29;20466;-65
2022/06/13 06:30:19;;;;;;;1.27;0.70;;;13.80;99.90;;;;;;4918840;29;20074;-65
2022/06/13 06:32:56;;;;;;;0.90;0.50;;;14.00;99.90;;;;;;4919864;29;20403;-65
2022/06/13 06:35:27;;;;;;;0.47;0.40;;;14.00;99.90;;;;;;4919663;29;20288;-65
2022/06/13 06:37:55;;;;;;;1.10;0.68;;;14.10;99.90;;;;;;4899608;29;20087;-65
2022/06/13 06:40:23;;;;;;;1.20;0.73;;;14.10;99.90;;;;;;4901138;29;20098;-65
2022/06/13 06:42:50;;;;;;;1.73;0.80;;;14.10;99.90;;;;;;4906005;29;20575;-65
2022/06/13 06:45:23;;;;;;;1.17;0.68;;;14.20;99.90;;;;;;4919816;29;20087;-65
2022/06/13 06:47:50;;;;;;;1.95;0.80;;;14.20;99.90;;;;;;4920716;29;20484;-65
2022/06/13 06:50:22;;;;;;;1.42;0.73;;;14.30;99.90;;;;;;4904178;29;20489;-65
2022/06/13 06:52:49;;;;;;;1.38;0.80;;;14.30;99.90;;;;;;4903345;29;20499;-65
2022/06/13 07:00:57;;;;;;;1.33;0.60;;;14.50;99.90;;;;;;4906101;29;20078;-66
2022/06/13 07:03:23;;;;;;;2.22;0.70;;;14.60;99.90;;;;;;4902988;29;20239;-66
2022/06/13 07:05:51;;;;;;;0.73;0.57;;;14.70;99.90;;;;;;4891261;29;20102;-66
2022/06/13 07:08:18;;;;;;;1.02;0.70;;;14.70;99.90;;;;;;4921068;29;20091;-65
2022/06/13 07:10:47;;;;;;;1.10;0.63;;;14.80;99.90;;;;;;4889076;29;20155;-66
2022/06/13 07:13:15;;;;;;;1.30;0.75;;;14.90;99.90;;;;;;4916433;29;20107;-65
2022/06/13 07:15:48;;;;;;;1.27;0.63;;;14.90;99.90;;;;;;4921684;29;20333;-66
2022/06/13 07:18:15;;;;;;;0.80;0.68;;;15.00;99.90;;;;;;4905444;29;20793;-66
2022/06/13 07:20:42;;;;;;;1.30;0.80;;;15.00;99.90;;;;;;4924471;29;20147;-65
2022/06/13 07:23:09;;;;;;;1.67;0.80;;;15.10;99.90;;;;;;4921149;29;20439;-64
2022/06/13 07:25:35;;;;;;;0.70;0.60;;;15.10;99.90;;;;;;4923545;29;20077;-66
2022/06/13 07:28:02;;;;;;;0.70;0.50;;;15.20;99.90;;;;;;4921973;29;20506;-65
2022/06/13 07:30:29;;;;;;;1.02;0.57;;;15.30;99.90;;;;;;4905988;29;20090;-65
2022/06/13 07:32:56;;;;;;;2.90;1.00;;;15.30;99.90;;;;;;4890287;29;20228;-65
2022/06/13 07:35:24;;;;;;;1.25;0.60;;;15.40;99.90;;;;;;4901006;29;20174;-66
2022/06/13 07:40:36;;;;;;;1.50;0.98;;;15.50;99.90;;;;;;4921198;29;20067;-66
2022/06/13 07:43:04;;;;;;;0.85;0.60;;;15.70;99.90;;;;;;4912085;29;20078;-65
2022/06/13 07:45:33;;;;;;;1.10;0.65;;;15.80;99.90;;;;;;4884720;29;20079;-65
2022/06/13 07:48:20;;;;;;;0.93;0.60;;;15.80;99.90;;;;;;4908698;29;20055;-66
2022/06/13 07:50:47;;;;;;;1.38;0.60;;;15.70;99.90;;;;;;4906440;29;20547;-66
2022/06/13 07:53:14;;;;;;;0.80;0.40;;;15.80;99.90;;;;;;4923119;29;20089;-66
2022/06/13 07:55:40;;;;;;;1.13;0.40;;;16.00;99.90;;;;;;4906042;29;20254;-65
2022/06/13 07:58:14;;;;;;;0.40;0.30;;;16.20;99.90;;;;;;4904954;29;20074;-65
2022/06/13 08:00:41;;;;;;;1.35;0.63;;;16.40;99.90;;;;;;4889749;29;20087;-66
2022/06/13 08:03:09;;;;;;;0.40;0.40;;;16.60;99.90;;;;;;4923014;29;20142;-65
2022/06/13 08:05:36;;;;;;;0.65;0.47;;;16.70;99.90;;;;;;4923628;29;20052;-65
2022/06/13 08:08:03;;;;;;;1.15;0.40;;;16.80;99.90;;;;;;4922691;29;20056;-66
2022/06/13 08:10:30;;;;;;;1.33;0.40;;;17.10;99.90;;;;;;4922501;29;20139;-66
2022/06/13 08:12:57;;;;;;;1.05;0.50;;;17.10;99.90;;;;;;4921351;29;20059;-66
2022/06/13 08:15:24;;;;;;;0.60;0.45;;;17.10;99.90;;;;;;4905238;29;20138;-65
2022/06/13 08:17:51;;;;;;;1.40;0.50;;;17.00;99.90;;;;;;4922662;29;20111;-66
2022/06/13 08:20:18;;;;;;;1.30;0.40;;;17.00;99.90;;;;;;4905798;29;20143;-65
2022/06/13 08:22:46;;;;;;;0.95;0.50;;;17.00;99.90;;;;;;4922582;29;20142;-66
2022/06/13 08:25:22;;;;;;;0.70;0.38;;;16.90;99.90;;;;;;4905459;29;20102;-66
2022/06/13 08:27:49;;;;;;;0.73;0.35;;;16.90;99.90;;;;;;4921095;29;20098;-65
2022/06/13 08:30:15;;;;;;;1.23;0.30;;;17.00;99.90;;;;;;4921977;29;20264;-66
2022/06/13 08:32:42;;;;;;;1.17;0.50;;;17.20;99.90;;;;;;4922501;29;20122;-66
2022/06/13 08:35:09;;;;;;;1.27;0.50;;;17.40;99.90;;;;;;4922011;29;20771;-65
2022/06/13 08:37:36;;;;;;;1.05;0.50;;;17.60;99.10;;;;;;4922866;29;20055;-66
2022/06/13 08:40:04;;;;;;;0.90;0.50;;;17.70;97.20;;;;;;4922484;29;20039;-64
2022/06/13 08:42:52;;;;;;;0.77;0.40;;;17.70;98.00;;;;;;4904029;29;20146;-65
2022/06/13 08:45:27;;;;;;;1.90;0.73;;;17.70;97.50;;;;;;4904311;29;20139;-66
2022/06/13 08:48:07;;;;;;;1.48;0.55;;;17.80;98.00;;;;;;4905533;29;20060;-65
2022/06/13 08:50:44;;;;;;;0.88;0.40;;;17.90;98.20;;;;;;4904525;29;20130;-65
2022/06/13 08:53:24;;;;;;;0.75;0.50;;;18.00;97.20;;;;;;4887570;29;20047;-65
2022/06/13 08:56:05;;;;;;;0.95;0.43;;;18.00;95.80;;;;;;4922174;29;20048;-65
2022/06/13 08:58:36;;;;;;;0.55;0.40;;;18.00;95.40;;;;;;4905127;29;20509;-65
2022/06/13 09:01:35;;;;;;;0.35;0.30;;;18.10;96.50;;;;;;4889282;29;20063;-65
2022/06/13 09:04:14;;;;;;;1.30;0.60;;;18.20;96.70;;;;;;4904146;29;20349;-65
2022/06/13 09:07:02;;;;;;;0.50;0.40;;;18.20;96.20;;;;;;4888005;29;20060;-65
2022/06/13 09:09:42;;;;;;;1.77;0.40;;;18.20;95.80;;;;;;4889842;29;20068;-65
2022/06/13 09:12:30;;;;;;;0.77;0.43;;;18.30;95.80;;;;;;4900541;29;20051;-65
2022/06/13 09:15:03;;;;;;;0.50;0.20;;;18.40;95.40;;;;;;4900816;29;20079;-66
2022/06/13 09:17:48;;;;;;;0.20;0.20;;;18.40;95.00;;;;;;4904096;29;20146;-66
2022/06/13 09:20:18;;;;;;;0.60;0.40;;;18.50;95.40;;;;;;4903701;29;20371;-65
2022/06/13 09:22:58;;;;;;;0.85;0.30;;;18.60;94.10;;;;;;4903572;29;20867;-65
2022/06/13 09:25:52;;;;;;;1.10;0.50;;;18.90;93.80;;;;;;4902863;29;20048;-65
2022/06/13 09:28:34;;;;;;;0.63;0.40;;;18.90;93.30;;;;;;4887438;29;20139;-65
2022/06/13 09:31:06;;;;;;;0.88;0.50;;;18.70;93.30;;;;;;4920800;29;20135;-65
2022/06/13 09:33:34;;;;;;;0.55;0.30;;;18.70;93.60;;;;;;4901568;29;20091;-66
2022/06/13 09:36:32;;;;;;;0.98;0.50;;;18.70;93.90;;;;;;4887815;29;20138;-66
2022/06/13 09:39:02;;;;;;;0.90;0.47;;;18.70;93.20;;;;;;4897160;29;20139;-66
2022/06/13 09:41:59;;;;;;;0.73;0.40;;;19.00;92.40;;;;;;4888481;29;20048;-66
2022/06/13 09:44:41;;;;;;;0.38;0.30;;;19.30;92.90;;;;;;4919582;29;20495;-66
2022/06/13 09:47:12;;;;;;;1.45;0.45;;;19.30;92.30;;;;;;4925931;29;20581;-66
2022/06/13 09:49:39;;;;;;;0.88;0.50;;;19.20;91.90;;;;;;4927357;29;20396;-65
2022/06/13 09:52:32;;;;;;;2.22;0.98;;;19.10;92.00;;;;;;4927494;29;20138;-65
2022/06/13 09:55:22;;;;;;;0.65;0.50;;;19.00;91.60;;;;;;4907833;29;20122;-65
2022/06/13 09:58:31;;;;;;;1.92;0.95;;;19.20;92.10;;;;;;4905739;29;20134;-65
2022/06/13 10:01:16;;;;;;;1.20;0.57;;;19.60;91.40;;;;;;4918996;29;20138;-66
2022/06/13 10:04:10;;;;;;;1.15;0.43;;;19.80;90.70;;;;;;4905209;29;20127;-66
2022/06/13 10:06:46;;;;;;;0.55;0.40;;;19.70;90.70;;;;;;4893612;29;20185;-66
2022/06/13 10:09:16;;;;;;;0.55;0.40;;;19.80;90.50;;;;;;4909531;29;20150;-66
2022/06/13 10:12:04;;;;;;;1.75;0.70;;;19.70;90.40;;;;;;4924832;29;20165;-65
2022/06/13 10:14:39;;;;;;;1.02;0.60;;;19.70;91.40;;;;;;4924112;29;20563;-66
2022/06/13 10:17:31;;;;;;;0.68;0.50;;;19.60;90.40;;;;;;4927137;29;20436;-66
2022/06/13 10:20:07;;;;;;;0.45;0.32;;;19.90;90.10;;;;;;4927507;29;20051;-66
2022/06/13 10:22:52;;;;;;;0.47;0.30;;;20.20;90.30;;;;;;4909373;29;20095;-66
2022/06/13 10:25:27;;;;;;;0.75;0.40;;;20.10;90.20;;;;;;4903725;29;20337;-66
2022/06/13 10:28:17;;;;;;;0.70;0.40;;;20.30;90.40;;;;;;4917486;29;20060;-65
2022/06/13 10:30:53;;;;;;;1.33;0.60;;;20.20;89.20;;;;;;4906757;29;20526;-66
2022/06/13 10:33:39;;;;;;;0.68;0.60;;;20.10;89.00;;;;;;4908504;29;20126;-66
2022/06/13 10:36:28;;;;;;;1.08;0.40;;;20.10;89.00;;;;;;4910305;29;20087;-66
2022/06/13 10:39:01;;;;;;;2.40;0.45;;;20.00;88.40;;;;;;4926489;29;20138;-66
2022/06/13 10:41:28;;;;;;;0.47;0.47;;;19.90;87.60;;;;;;4909596;29;20102;-66
2022/06/13 10:43:55;;;;;;;0.40;0.30;;;20.00;85.90;;;;;;4926641;29;20091;-65
2022/06/13 10:46:22;;;;;;;0.47;0.40;;;20.20;87.20;;;;;;4909553;29;20440;-65
2022/06/13 10:49:17;;;;;;;2.15;0.35;;;20.30;88.30;;;;;;4910896;29;20131;-66
2022/06/13 10:51:44;;;;;;;1.38;0.50;;;20.20;86.30;;;;;;4920402;29;20339;-66
2022/06/13 10:54:13;;;;;;;0.77;0.50;;;20.20;86.60;;;;;;4913765;29;20142;-66
2022/06/13 10:56:42;;;;;;;0.32;0.30;;;20.30;85.50;;;;;;4912677;29;20147;-66
2022/06/13 10:59:26;;;;;;;0.50;0.50;;;20.30;86.00;;;;;;4929641;29;20446;-67
2022/06/13 11:02:00;;;;;;;0.82;0.47;;;20.40;85.20;;;;;;4913718;29;20101;-66
2022/06/13 11:04:28;;;;;;;0.93;0.40;;;20.60;84.10;;;;;;4913869;29;20511;-66
2022/06/13 11:06:58;;;;;;;0.40;0.35;;;20.80;84.00;;;;;;4913079;29;20075;-66
2022/06/13 11:09:30;;;;;;;1.27;0.60;;;20.90;84.00;;;;;;4913294;29;20139;-67
2022/06/13 11:11:58;;;;;;;0.50;0.50;;;21.00;83.60;;;;;;4912240;29;20142;-65
2022/06/13 11:14:28;;;;;;;0.30;0.30;;;21.00;82.20;;;;;;4896867;29;20094;-66
2022/06/13 11:22:38;;;;;;;0.30;0.30;;;20.90;80.20;;;;;;4915626;29;20155;-66
2022/06/13 11:25:29;;;;;;;0.52;0.30;;;21.10;80.90;;;;;;4927017;29;20090;-65
2022/06/13 11:28:10;;;;;;;0.50;0.40;;;21.10;82.50;;;;;;4925187;29;20095;-65
2022/06/13 11:30:41;;;;;;;0.80;0.50;;;20.90;82.90;;;;;;4909379;29;20054;-65
2022/06/13 11:33:10;;;;;;;1.35;0.75;;;20.80;82.40;;;;;;4925912;29;20201;-66
2022/06/13 11:35:43;;;;;;;0.47;0.30;;;20.70;82.20;;;;;;4929915;29;20487;-65
2022/06/13 11:38:16;;;;;;;0.77;0.40;;;20.60;82.50;;;;;;4911129;29;20480;-65
2022/06/13 11:41:00;;;;;;;0.57;0.40;;;20.90;82.50;;;;;;4926158;29;20420;-66
2022/06/13 11:43:57;;;;;;;0.70;0.50;;;21.20;81.40;;;;;;4893632;29;20570;-65
2022/06/13 11:46:30;;;;;;;0.70;0.40;;;21.70;79.60;;;;;;4928486;29;20059;-65
2022/06/13 11:49:19;;;;;;;0.90;0.50;;;22.30;78.80;;;;;;4929167;29;20317;-66
2022/06/13 11:52:07;;;;;;;0.60;0.45;;;22.80;76.70;;;;;;4930089;29;20487;-65
2022/06/13 11:54:41;;;;;;;0.63;0.50;;;22.60;76.10;;;;;;4912085;29;20090;-66
2022/06/13 11:57:14;;;;;;;0.60;0.60;;;22.50;75.60;;;;;;4910707;29;20135;-65
2022/06/13 11:59:59;;;;;;;0.40;0.40;;;22.90;74.90;;;;;;4928356;29;20502;-65
2022/06/13 12:02:39;;;;;;;0.50;0.50;;;23.20;75.40;;;;;;4912397;29;20311;-65
2022/06/13 12:05:30;;;;;;;0.50;0.30;;;23.10;75.30;;;;;;4911102;29;20480;-65
2022/06/13 12:08:14;;;;;;;0.57;0.50;;;22.80;75.90;;;;;;4909034;29;20091;-67
2022/06/13 12:11:13;;;;;;;0.40;0.40;;;22.40;75.90;;;;;;4927197;29;20091;-66
2022/06/13 12:13:42;;;;;;;0.60;0.40;;;22.40;76.30;;;;;;4918889;29;20102;-66
2022/06/13 12:16:37;;;;;;;0.52;0.32;;;22.90;74.90;;;;;;4908144;29;20056;-67
2022/06/13 12:19:33;;;;;;;0.50;0.50;;;22.50;74.60;;;;;;4926143;29;20055;-67
2022/06/13 12:22:15;;;;;;;0.85;0.40;;;22.90;75.50;;;;;;4911311;29;20110;-67
2022/06/13 12:24:45;;;;;;;;;;;23.60;72.30;;;;;;4909472;29;20091;-67
2022/06/13 12:27:24;;;;;;;0.55;0.30;;;23.40;72.30;;;;;;4922739;29;19935;-67
2022/06/13 12:29:55;;;;;;;0.68;0.38;;;23.20;73.50;;;;;;4924214;29;20074;-67
2022/06/13 12:32:30;;;;;;;0.88;0.60;;;22.80;73.50;;;;;;4896156;29;20126;-67
2022/06/13 12:35:03;;;;;;;0.73;0.63;;;22.50;74.60;;;;;;4908003;29;20479;-67
2022/06/13 12:37:42;;;;;;;;;;;23.10;73.60;;;;;;4919901;29;20099;-66
2022/06/13 12:40:15;;;;;;;0.40;0.40;;;23.90;71.30;;;;;;4889515;29;20025;-66
2022/06/13 12:42:59;;;;;;;0.75;0.68;;;24.50;69.80;;;;;;4921098;29;20542;-66
2022/06/13 12:45:51;;;;;;;1.02;0.60;;;24.80;69.50;;;;;;4921434;29;20127;-67
2022/06/13 12:48:36;;;;;;;0.73;0.60;;;25.30;70.50;;;;;;4921453;29;20131;-66
2022/06/13 12:51:41;;;;;;;0.25;0.20;;;25.00;68.10;;;;;;4911455;29;20089;-66
2022/06/13 12:54:22;;;;;;;0.73;0.60;;;24.60;68.70;;;;;;4874897;29;20528;-64
2022/06/13 12:56:56;;;;;;;0.30;0.28;;;24.10;69.40;;;;;;4906750;29;20098;-65
2022/06/13 12:59:54;;;;;;;1.00;0.60;;;23.90;69.60;;;;;;4921458;29;20301;-64
2022/06/13 13:02:33;;;;;;;0.60;0.52;;;24.20;70.50;;;;;;4919053;29;20602;-65
2022/06/13 13:05:09;;;;;;;0.82;0.60;;;24.20;71.30;;;;;;4899540;29;20052;-66
2022/06/13 13:07:52;;;;;;;0.93;0.47;;;24.80;68.90;;;;;;4920917;29;20058;-65
2022/06/13 13:10:33;;;;;;;;;;;25.00;67.80;;;;;;4903072;29;20166;-65
2022/06/13 13:13:25;;;;;;;0.50;0.50;;;25.30;68.20;;;;;;4894293;29;20009;-65
2022/06/13 13:16:10;;;;;;;0.80;0.70;;;25.60;68.20;;;;;;4903968;29;20219;-65
2022/06/13 13:18:58;;;;;;;0.90;0.50;;;26.10;67.30;;;;;;4921710;29;20059;-66
2022/06/13 13:21:57;;;;;;;1.20;0.60;;;25.30;66.60;;;;;;4920131;29;20078;-66
2022/06/13 13:24:56;;;;;;;1.60;0.50;;;24.80;67.20;;;;;;4886600;29;20159;-65
2022/06/13 13:27:24;;;;;;;0.52;0.43;;;24.30;67.70;;;;;;4919424;29;20206;-65
2022/06/13 13:30:05;;;;;;;1.70;0.73;;;23.90;67.70;;;;;;4904094;29;20455;-66
2022/06/13 13:33:00;;;;;;;1.25;0.88;;;23.70;68.90;;;;;;4901489;29;21732;-65
2022/06/13 13:35:34;;;;;;;0.38;0.38;;;23.60;67.90;;;;;;4920848;29;20449;-66
2022/06/13 13:38:08;;;;;;;1.38;0.40;;;23.40;68.00;;;;;;4902861;29;20135;-66
2022/06/13 13:40:42;;;;;;;1.17;0.60;;;23.40;69.70;;;;;;4904149;29;20579;-66
2022/06/13 13:43:21;;;;;;;0.75;0.60;;;23.30;69.20;;;;;;4901123;29;20110;-66
2022/06/13 13:45:55;;;;;;;0.50;0.43;;;23.30;70.50;;;;;;4886048;29;20566;-66
2022/06/13 13:48:33;;;;;;;0.68;0.60;;;23.80;70.20;;;;;;4901915;29;20052;-65
2022/06/13 13:51:02;;;;;;;1.00;0.80;;;24.00;69.10;;;;;;4902139;29;20158;-65